Time;durP1;ratioP1;P1;durP2;ratioP2;P2;SDS_P1;SDS_P2;PMS_P1;PMS_P2;Temp;Humidity;BMP_temperature;BMP_pressure;BME280_temperature;BME280_humidity;BME280_pressure;Samples;Min_cycle;Max_cycle;Signal;HPM_P1;HPM_P2
2022/04/04 00:00:21;;;;;;;26.98;18.77;;;2.20;99.90;;;;;;5098123;28;20050;-80
2022/04/04 00:02:46;;;;;;;23.25;16.65;;;2.00;99.90;;;;;;5097549;28;20024;-80
2022/04/04 00:05:12;;;;;;;33.78;21.33;;;2.00;99.90;;;;;;5097389;28;20021;-80
2022/04/04 00:07:38;;;;;;;28.52;18.30;;;1.90;99.90;;;;;;5098830;28;20028;-80
2022/04/04 00:10:05;;;;;;;33.47;21.70;;;1.90;99.90;;;;;;5097325;28;20020;-79
2022/04/04 00:12:31;;;;;;;22.50;16.40;;;1.90;99.90;;;;;;5098132;28;20022;-80
2022/04/04 00:14:57;;;;;;;26.63;17.73;;;1.90;99.90;;;;;;5098096;28;20052;-80
2022/04/04 00:17:23;;;;;;;40.65;23.67;;;1.90;99.90;;;;;;5095917;28;20020;-80
2022/04/04 00:19:49;;;;;;;26.30;18.15;;;1.90;99.90;;;;;;5095742;28;20089;-80
2022/04/04 00:22:15;;;;;;;23.92;18.83;;;1.90;99.90;;;;;;5099791;28;20037;-80
2022/04/04 00:24:41;;;;;;;26.55;18.23;;;2.00;99.90;;;;;;5099702;28;20076;-80
2022/04/04 00:27:06;;;;;;;19.80;16.15;;;2.00;99.90;;;;;;5100924;28;20035;-82
2022/04/04 00:29:32;;;;;;;279.02;114.25;;;2.00;99.90;;;;;;5099988;28;20028;-80
2022/04/04 00:31:58;;;;;;;46.17;25.45;;;2.10;99.90;;;;;;5101726;28;20031;-80
2022/04/04 00:34:24;;;;;;;32.75;20.20;;;2.10;99.90;;;;;;5101091;28;20046;-80
2022/04/04 00:36:50;;;;;;;48.63;26.40;;;2.10;99.90;;;;;;5100475;28;20095;-80
2022/04/04 00:39:19;;;;;;;21.30;16.58;;;2.10;99.90;;;;;;5099237;28;20024;-80
2022/04/04 00:41:46;;;;;;;19.85;15.43;;;2.10;99.90;;;;;;5100954;28;20024;-80
2022/04/04 00:44:12;;;;;;;20.63;15.20;;;2.10;99.90;;;;;;5099166;28;20058;-79
2022/04/04 00:46:40;;;;;;;30.88;18.70;;;2.20;99.90;;;;;;5099430;28;20025;-80
2022/04/04 00:49:07;;;;;;;78.43;37.28;;;2.20;99.90;;;;;;5101137;28;20032;-80
2022/04/04 00:51:33;;;;;;;30.92;18.85;;;2.20;99.90;;;;;;5100851;28;20016;-80
2022/04/04 00:53:59;;;;;;;19.40;14.85;;;2.20;99.90;;;;;;5098941;28;20028;-80
2022/04/04 00:56:31;;;;;;;21.60;15.07;;;2.20;99.90;;;;;;5100662;28;20023;-80
2022/04/04 00:58:57;;;;;;;51.10;27.23;;;2.20;99.90;;;;;;5100611;28;20038;-80
2022/04/04 01:01:23;;;;;;;17.42;13.77;;;2.20;99.90;;;;;;5100720;28;20034;-80
2022/04/04 01:03:50;;;;;;;147.88;62.03;;;2.20;99.90;;;;;;5101006;28;20107;-79
2022/04/04 01:06:17;;;;;;;18.33;14.05;;;2.20;99.90;;;;;;5099559;28;20032;-80
2022/04/04 01:08:44;;;;;;;98.25;43.08;;;2.20;99.90;;;;;;5100007;28;20024;-79
2022/04/04 01:11:11;;;;;;;19.95;14.70;;;2.20;99.90;;;;;;5100592;28;20019;-80
2022/04/04 01:13:43;;;;;;;20.88;15.35;;;2.20;99.90;;;;;;5099361;28;20460;-80
2022/04/04 01:16:09;;;;;;;21.10;15.77;;;2.20;99.90;;;;;;5100604;28;20051;-79
2022/04/04 01:18:35;;;;;;;42.17;22.08;;;2.20;99.90;;;;;;5100753;28;20035;-80
2022/04/04 01:21:02;;;;;;;21.60;15.50;;;2.20;99.90;;;;;;5097785;28;20133;-80
2022/04/04 01:23:43;;;;;;;122.75;50.08;;;2.10;99.90;;;;;;5100354;28;20024;-80
2022/04/04 01:26:13;;;;;;;21.20;15.55;;;2.10;99.90;;;;;;5100030;28;20357;-80
2022/04/04 01:28:40;;;;;;;21.75;14.18;;;2.20;99.90;;;;;;5096138;28;20051;-80
2022/04/04 01:31:07;;;;;;;24.08;17.02;;;2.10;99.90;;;;;;5088561;28;20027;-81
2022/04/04 01:33:33;;;;;;;24.35;14.57;;;2.10;99.90;;;;;;5099419;28;20016;-82
2022/04/04 01:35:59;;;;;;;91.63;39.17;;;2.10;99.90;;;;;;5099770;28;20027;-80
2022/04/04 01:38:26;;;;;;;16.08;13.48;;;2.00;99.90;;;;;;5099524;28;20016;-80
2022/04/04 01:40:52;;;;;;;22.02;16.45;;;2.00;99.90;;;;;;5099313;28;20035;-81
2022/04/04 01:43:18;;;;;;;22.85;15.48;;;1.90;99.90;;;;;;5099207;28;20095;-80
2022/04/04 01:48:35;;;;;;;21.40;15.10;;;1.80;99.90;;;;;;5099198;28;20035;-80
2022/04/04 01:51:01;;;;;;;18.15;14.93;;;1.70;99.90;;;;;;5097979;28;20052;-79
2022/04/04 01:53:27;;;;;;;17.10;15.13;;;1.70;99.90;;;;;;5099115;28;20039;-80
2022/04/04 01:55:55;;;;;;;17.50;14.73;;;1.60;99.90;;;;;;5097829;28;20122;-80
2022/04/04 01:58:21;;;;;;;27.02;17.25;;;1.60;99.90;;;;;;5098797;28;20024;-80
2022/04/04 02:00:47;;;;;;;20.50;15.43;;;1.50;99.90;;;;;;5097738;28;20503;-80
2022/04/04 02:03:13;;;;;;;19.85;15.80;;;1.40;99.90;;;;;;5099002;28;20027;-80
2022/04/04 02:05:39;;;;;;;18.45;14.70;;;1.40;99.90;;;;;;5099081;28;20024;-80
2022/04/04 02:08:05;;;;;;;25.40;15.90;;;1.40;99.90;;;;;;5098915;28;20028;-80
2022/04/04 02:10:31;;;;;;;24.35;16.05;;;1.30;99.90;;;;;;5097578;28;20081;-79
2022/04/04 02:12:58;;;;;;;21.27;17.00;;;1.30;99.90;;;;;;5097452;28;20028;-80
2022/04/04 02:15:24;;;;;;;21.55;16.02;;;1.30;99.90;;;;;;5098903;28;20028;-80
2022/04/04 02:17:50;;;;;;;31.75;19.52;;;1.20;99.90;;;;;;5098547;28;20028;-80
2022/04/04 02:20:16;;;;;;;29.48;19.98;;;1.20;99.90;;;;;;5098812;28;20028;-80
2022/04/04 02:22:42;;;;;;;30.23;19.33;;;1.20;99.90;;;;;;5098614;28;20482;-80
2022/04/04 02:25:08;;;;;;;65.18;29.48;;;1.20;99.90;;;;;;5098690;28;20012;-80
2022/04/04 02:27:34;;;;;;;22.38;16.05;;;1.20;99.90;;;;;;5097342;28;20111;-79
2022/04/04 02:30:00;;;;;;;18.27;14.73;;;1.20;99.90;;;;;;5098756;28;20052;-80
2022/04/04 02:32:26;;;;;;;21.10;16.77;;;1.20;99.90;;;;;;5098647;28;20023;-81
2022/04/04 02:34:52;;;;;;;23.05;15.90;;;1.20;99.90;;;;;;5097526;28;20551;-80
2022/04/04 02:37:18;;;;;;;37.92;22.83;;;1.10;99.90;;;;;;5099191;28;20024;-79
2022/04/04 02:39:44;;;;;;;20.67;15.90;;;1.10;99.90;;;;;;5098535;28;20035;-79
2022/04/04 02:42:10;;;;;;;25.08;18.15;;;1.00;99.90;;;;;;5099015;28;20021;-80
2022/04/04 02:44:36;;;;;;;22.23;17.35;;;1.00;99.90;;;;;;5098050;28;20058;-80
2022/04/04 02:47:02;;;;;;;17.17;15.35;;;1.00;99.90;;;;;;5098520;28;20045;-81
2022/04/04 02:49:30;;;;;;;21.85;16.30;;;1.00;99.90;;;;;;5098282;28;20032;-80
2022/04/04 02:51:57;;;;;;;23.92;17.77;;;0.90;99.90;;;;;;5098374;28;20027;-79
2022/04/04 02:54:24;;;;;;;38.22;25.63;;;0.90;99.90;;;;;;5097887;28;20024;-80
2022/04/04 02:56:50;;;;;;;20.58;16.23;;;0.90;99.90;;;;;;5096716;28;20112;-79
2022/04/04 02:59:16;;;;;;;21.20;16.27;;;0.90;99.90;;;;;;5097966;28;20397;-81
2022/04/04 03:01:48;;;;;;;22.58;15.95;;;0.80;99.90;;;;;;5098261;28;20026;-81
2022/04/04 03:04:18;;;;;;;19.55;16.45;;;0.70;99.90;;;;;;5096833;28;20028;-80
2022/04/04 03:06:44;;;;;;;21.73;17.08;;;0.70;99.90;;;;;;5096828;28;20085;-80
2022/04/04 03:09:11;;;;;;;20.27;17.25;;;0.70;99.90;;;;;;5097688;28;20040;-80
2022/04/04 03:11:37;;;;;;;27.65;20.05;;;0.60;99.90;;;;;;5096397;28;20055;-80
2022/04/04 03:14:04;;;;;;;28.27;20.80;;;0.60;99.90;;;;;;5096637;28;20034;-80
2022/04/04 03:16:30;;;;;;;56.35;36.97;;;0.60;99.90;;;;;;5097782;28;20027;-80
2022/04/04 03:18:57;;;;;;;27.38;18.58;;;0.40;99.90;;;;;;5096218;28;20032;-82
2022/04/04 03:21:23;;;;;;;24.05;18.40;;;0.30;99.90;;;;;;5097619;28;20086;-82
2022/04/04 03:23:49;;;;;;;21.10;17.40;;;0.20;99.90;;;;;;5097405;28;20388;-83
2022/04/04 03:26:15;;;;;;;20.92;16.90;;;0.20;99.90;;;;;;5097685;28;20020;-83
2022/04/04 03:28:41;;;;;;;19.30;16.65;;;0.10;99.90;;;;;;5097376;28;20020;-80
2022/04/04 03:31:08;;;;;;;21.75;16.40;;;0.00;99.90;;;;;;5097623;28;20492;-83
2022/04/04 03:33:36;;;;;;;21.50;16.50;;;0.00;99.90;;;;;;5097536;28;20039;-83
2022/04/04 03:36:02;;;;;;;20.13;15.68;;;0.00;99.90;;;;;;5096178;28;20028;-83
2022/04/04 03:38:29;;;;;;;21.85;17.48;;;0.00;99.90;;;;;;5096161;28;20107;-83
2022/04/04 03:40:55;;;;;;;22.80;17.95;;;-0.10;99.90;;;;;;5096195;28;20031;-82
2022/04/04 03:43:23;;;;;;;25.42;18.60;;;-0.10;99.90;;;;;;5097418;28;20787;-82
2022/04/04 03:45:48;;;;;;;23.75;18.05;;;-0.20;99.90;;;;;;5097216;28;20040;-82
2022/04/04 03:48:15;;;;;;;23.48;18.60;;;-0.20;99.90;;;;;;5097275;28;20079;-82
2022/04/04 03:50:43;;;;;;;19.80;17.30;;;-0.30;99.90;;;;;;5096178;28;20028;-83
2022/04/04 03:53:09;;;;;;;21.95;17.50;;;-0.30;99.90;;;;;;5097462;28;20035;-83
2022/04/04 03:55:38;;;;;;;24.60;18.02;;;-0.40;99.90;;;;;;5097270;28;20103;-82
2022/04/04 03:58:08;;;;;;;22.75;18.70;;;-0.40;99.90;;;;;;5100351;28;20054;-82
2022/04/04 04:00:34;;;;;;;24.15;18.55;;;-0.40;99.90;;;;;;5100948;28;20016;-83
2022/04/04 04:03:00;;;;;;;20.80;17.30;;;-0.50;99.90;;;;;;5100672;28;20050;-82
2022/04/04 04:05:27;;;;;;;28.42;18.95;;;-0.50;99.90;;;;;;5102171;28;20474;-83
2022/04/04 04:07:53;;;;;;;21.33;17.77;;;-0.50;99.90;;;;;;5104709;28;20023;-82
2022/04/04 04:10:19;;;;;;;21.05;17.38;;;-0.50;99.90;;;;;;5103548;28;20031;-82
2022/04/04 04:12:46;;;;;;;22.23;17.95;;;-0.50;99.90;;;;;;5104856;28;20016;-82
2022/04/04 04:15:15;;;;;;;20.63;17.25;;;-0.40;99.90;;;;;;5105560;28;20472;-81
2022/04/04 04:17:41;;;;;;;24.40;18.67;;;-0.40;99.90;;;;;;5104836;28;20020;-82
2022/04/04 04:20:19;;;;;;;27.30;18.13;;;-0.30;99.90;;;;;;5104683;28;20074;-82
2022/04/04 04:23:05;;;;;;;26.50;19.45;;;-0.30;99.90;;;;;;5102254;28;20031;-82
2022/04/04 04:25:33;;;;;;;23.77;18.63;;;-0.20;99.90;;;;;;5103504;28;20043;-81
2022/04/04 04:28:01;;;;;;;28.63;19.58;;;-0.20;99.90;;;;;;5101921;28;20017;-82
2022/04/04 04:30:28;;;;;;;27.27;19.10;;;-0.20;99.90;;;;;;5090364;28;20074;-82
2022/04/04 04:32:54;;;;;;;25.17;19.50;;;-0.30;99.90;;;;;;5103938;28;20021;-82
2022/04/04 04:35:21;;;;;;;24.83;18.77;;;-0.40;99.90;;;;;;5102917;28;20020;-82
2022/04/04 04:37:47;;;;;;;24.73;19.27;;;-0.50;99.90;;;;;;5104120;28;20379;-82
2022/04/04 04:40:14;;;;;;;26.55;19.50;;;-0.50;99.90;;;;;;5102207;28;20028;-82
2022/04/04 04:42:42;;;;;;;21.55;17.38;;;-0.60;99.90;;;;;;5102823;28;20384;-82
2022/04/04 04:45:08;;;;;;;22.77;18.08;;;-0.70;99.90;;;;;;5101841;28;20079;-82
2022/04/04 04:47:34;;;;;;;22.67;18.95;;;-0.70;99.90;;;;;;5101132;28;20032;-82
2022/04/04 04:50:01;;;;;;;25.02;19.33;;;-0.80;99.90;;;;;;5102918;28;20477;-81
2022/04/04 04:52:27;;;;;;;25.77;19.05;;;-0.80;99.90;;;;;;5101396;28;20051;-82
2022/04/04 04:54:53;;;;;;;25.83;17.92;;;-0.80;99.90;;;;;;5099419;28;20031;-82
2022/04/04 04:57:20;;;;;;;27.17;19.77;;;-0.90;99.90;;;;;;5099733;28;20024;-82
2022/04/04 04:59:47;;;;;;;29.65;20.35;;;-0.90;99.90;;;;;;5099146;28;20084;-82
2022/04/04 05:02:13;;;;;;;24.23;18.27;;;-0.90;99.90;;;;;;5100621;28;20093;-82
2022/04/04 05:04:39;;;;;;;29.70;19.20;;;-0.90;99.90;;;;;;5100360;28;20025;-82
2022/04/04 05:07:08;;;;;;;26.05;19.70;;;-0.90;99.90;;;;;;5100049;28;20027;-82
2022/04/04 05:09:37;;;;;;;28.00;18.45;;;-0.90;99.90;;;;;;5099874;28;20069;-81
2022/04/04 05:12:03;;;;;;;26.13;19.70;;;-0.90;99.90;;;;;;5098928;28;20020;-82
2022/04/04 05:14:29;;;;;;;23.40;19.17;;;-1.00;99.90;;;;;;5099885;28;20067;-82
2022/04/04 05:16:55;;;;;;;21.77;18.15;;;-1.00;99.90;;;;;;5099032;28;20020;-82
2022/04/04 05:19:22;;;;;;;27.60;19.55;;;-1.10;99.90;;;;;;5099805;28;20075;-81
2022/04/04 05:21:49;;;;;;;25.27;19.42;;;-1.10;99.90;;;;;;5099610;28;20039;-81
2022/04/04 05:24:15;;;;;;;26.13;19.50;;;-1.20;99.90;;;;;;5099553;28;20024;-81
2022/04/04 05:26:43;;;;;;;26.45;19.75;;;-1.20;99.90;;;;;;5078311;28;20031;-81
2022/04/04 05:29:09;;;;;;;22.95;19.92;;;-1.20;99.90;;;;;;5086150;28;20070;-81
2022/04/04 05:31:35;;;;;;;20.98;18.20;;;-1.20;99.90;;;;;;5099683;28;20024;-82
2022/04/04 05:34:04;;;;;;;29.33;20.02;;;-1.20;99.90;;;;;;5098282;28;20030;-82
2022/04/04 05:36:33;;;;;;;26.42;18.95;;;-1.10;99.90;;;;;;5098266;28;20081;-81
2022/04/04 05:38:59;;;;;;;24.23;18.88;;;-1.10;99.90;;;;;;5098055;28;20024;-82
2022/04/04 05:41:27;;;;;;;27.17;19.85;;;-1.10;99.90;;;;;;5099624;28;20016;-82
2022/04/04 05:43:54;;;;;;;24.38;18.58;;;-1.10;99.90;;;;;;5098423;28;20040;-82
2022/04/04 05:46:20;;;;;;;25.45;18.65;;;-1.20;99.90;;;;;;5099272;28;20016;-82
2022/04/04 05:48:46;;;;;;;37.20;21.40;;;-1.20;99.90;;;;;;5099674;28;20099;-82
2022/04/04 05:51:13;;;;;;;26.25;20.52;;;-1.10;99.90;;;;;;5098231;28;20047;-81
2022/04/04 05:53:40;;;;;;;23.60;18.58;;;-1.10;99.90;;;;;;5099208;28;20090;-81
2022/04/04 05:56:06;;;;;;;27.25;21.42;;;-1.00;99.90;;;;;;5099240;28;20073;-81
2022/04/04 05:58:32;;;;;;;29.02;22.05;;;-1.00;99.90;;;;;;5099104;28;20463;-81
2022/04/04 06:00:58;;;;;;;33.50;22.40;;;-0.90;99.90;;;;;;5099178;28;20020;-82
2022/04/04 06:03:24;;;;;;;32.65;22.20;;;-0.80;99.90;;;;;;5099299;28;20430;-81
2022/04/04 06:05:51;;;;;;;29.73;21.60;;;-0.80;99.90;;;;;;5098978;28;20031;-82
2022/04/04 06:08:17;;;;;;;32.90;22.65;;;-0.70;99.90;;;;;;5099238;28;20038;-81
2022/04/04 06:10:47;;;;;;;27.40;20.90;;;-0.70;99.90;;;;;;5098596;28;20024;-81
2022/04/04 06:13:18;;;;;;;28.08;21.98;;;-0.60;99.90;;;;;;5097438;28;20028;-81
2022/04/04 06:15:44;;;;;;;30.60;22.15;;;-0.50;99.90;;;;;;5098716;28;20099;-81
2022/04/04 06:18:12;;;;;;;24.83;21.30;;;-0.50;99.90;;;;;;5097194;28;20032;-81
2022/04/04 06:20:39;;;;;;;24.77;20.40;;;-0.40;99.90;;;;;;5097984;28;20017;-81
2022/04/04 06:23:05;;;;;;;30.67;23.45;;;-0.40;99.90;;;;;;5098971;28;20024;-81
2022/04/04 06:25:31;;;;;;;33.40;23.70;;;-0.30;99.90;;;;;;5097019;28;20021;-81
2022/04/04 06:27:58;;;;;;;34.67;26.90;;;-0.20;99.90;;;;;;5098881;28;20031;-81
2022/04/04 06:30:25;;;;;;;43.50;32.10;;;-0.10;99.90;;;;;;5083492;28;20027;-81
2022/04/04 06:32:51;;;;;;;38.03;29.10;;;0.00;99.90;;;;;;5097252;28;20020;-81
2022/04/04 06:35:17;;;;;;;50.45;31.23;;;0.00;99.90;;;;;;5098637;28;20028;-81
2022/04/04 06:37:45;;;;;;;38.17;30.60;;;0.10;99.90;;;;;;5098539;28;20030;-80
2022/04/04 06:40:12;;;;;;;37.03;28.23;;;0.10;99.90;;;;;;5098116;28;20088;-81
2022/04/04 06:42:41;;;;;;;32.92;25.50;;;0.20;99.90;;;;;;5092278;28;20066;-80
2022/04/04 06:45:08;;;;;;;36.88;26.67;;;0.30;99.90;;;;;;5086698;28;20588;-83
2022/04/04 06:47:34;;;;;;;40.70;28.70;;;0.40;99.90;;;;;;5098220;28;20361;-83
2022/04/04 06:50:00;;;;;;;41.35;30.10;;;0.50;99.90;;;;;;5085608;28;20108;-82
2022/04/04 06:52:27;;;;;;;38.00;28.27;;;0.60;99.90;;;;;;5078092;28;20446;-83
2022/04/04 06:54:54;;;;;;;30.08;23.38;;;0.70;99.90;;;;;;5095118;28;20108;-83
2022/04/04 06:57:20;;;;;;;35.80;26.17;;;0.70;99.90;;;;;;5092893;28;20035;-82
2022/04/04 06:59:47;;;;;;;36.17;25.88;;;0.80;99.90;;;;;;5098045;28;20028;-82
2022/04/04 07:02:13;;;;;;;33.00;25.65;;;1.00;99.90;;;;;;5098267;28;20416;-80
2022/04/04 07:04:40;;;;;;;35.83;25.98;;;1.10;99.90;;;;;;5091021;28;20012;-80
2022/04/04 07:07:07;;;;;;;30.05;23.60;;;1.20;99.90;;;;;;5090463;28;20020;-81
2022/04/04 07:09:33;;;;;;;28.75;22.55;;;1.40;99.90;;;;;;5080281;28;20416;-81
2022/04/04 07:11:59;;;;;;;29.02;22.35;;;1.40;99.90;;;;;;5078970;28;20030;-81
2022/04/04 07:14:25;;;;;;;29.48;22.75;;;1.50;99.90;;;;;;5074752;28;20556;-81
2022/04/04 07:16:53;;;;;;;31.60;22.83;;;1.60;99.90;;;;;;5084640;28;20123;-81
2022/04/04 07:19:22;;;;;;;54.60;34.30;;;1.70;99.90;;;;;;5095372;28;20403;-81
2022/04/04 07:21:51;;;;;;;68.93;36.22;;;1.80;99.90;;;;;;5096623;28;20028;-81
2022/04/04 07:24:18;;;;;;;33.67;24.85;;;1.90;99.90;;;;;;5090116;28;20032;-81
2022/04/04 07:26:44;;;;;;;29.83;23.45;;;1.90;99.90;;;;;;5098233;28;20020;-82
2022/04/04 07:29:09;;;;;;;33.53;22.58;;;2.00;99.90;;;;;;5097712;28;20027;-83
2022/04/04 07:31:36;;;;;;;35.42;24.48;;;2.20;99.90;;;;;;5097163;28;20400;-82
2022/04/04 07:34:03;;;;;;;39.05;24.85;;;2.30;99.90;;;;;;5096885;28;20024;-81
2022/04/04 07:36:29;;;;;;;38.53;24.48;;;2.50;99.90;;;;;;5085586;28;20523;-80
2022/04/04 07:38:55;;;;;;;35.63;23.85;;;2.70;99.90;;;;;;5088258;28;20030;-81
2022/04/04 07:41:21;;;;;;;66.85;43.90;;;2.90;99.90;;;;;;5097400;28;20020;-81
2022/04/04 07:43:48;;;;;;;241.20;119.13;;;3.00;99.90;;;;;;5095847;28;20119;-81
2022/04/04 07:46:14;;;;;;;379.25;203.25;;;3.10;99.90;;;;;;5095988;28;20111;-81
2022/04/04 07:48:42;;;;;;;32.42;23.35;;;3.20;99.90;;;;;;5096363;28;20021;-80
2022/04/04 07:51:08;;;;;;;28.92;20.35;;;3.50;99.90;;;;;;5097338;28;20024;-81
2022/04/04 07:53:34;;;;;;;27.92;20.38;;;3.60;99.90;;;;;;5096830;28;20024;-82
2022/04/04 07:56:01;;;;;;;30.48;21.33;;;3.80;99.90;;;;;;5096444;28;20028;-81
2022/04/04 07:58:27;;;;;;;29.73;20.63;;;4.00;99.90;;;;;;5097361;28;20024;-81
2022/04/04 08:00:54;;;;;;;29.25;21.73;;;4.10;99.90;;;;;;5097420;28;20020;-82
2022/04/04 08:03:22;;;;;;;133.30;93.57;;;4.20;99.90;;;;;;5095410;28;20016;-81
2022/04/04 08:05:48;;;;;;;316.17;123.97;;;4.20;99.90;;;;;;5090608;28;20114;-81
2022/04/04 08:08:14;;;;;;;688.63;291.83;;;4.20;99.90;;;;;;5096331;28;20099;-82
2022/04/04 08:10:40;;;;;;;49.45;30.05;;;4.30;99.90;;;;;;5097198;28;20425;-82
2022/04/04 08:13:06;;;;;;;251.63;98.28;;;4.40;99.90;;;;;;5095749;28;20031;-82
2022/04/04 08:15:32;;;;;;;394.10;147.15;;;4.40;99.90;;;;;;5095841;28;20028;-82
2022/04/04 08:17:58;;;;;;;45.60;23.67;;;4.50;99.90;;;;;;5097068;28;20095;-82
2022/04/04 08:20:24;;;;;;;29.85;19.58;;;4.60;99.90;;;;;;5097116;28;20052;-82
2022/04/04 08:22:50;;;;;;;37.15;21.15;;;4.70;99.90;;;;;;5096075;28;20024;-83
2022/04/04 08:25:17;;;;;;;24.33;16.40;;;4.80;99.90;;;;;;5097180;28;20028;-82
2022/04/04 08:27:43;;;;;;;21.98;15.40;;;4.90;99.90;;;;;;5097300;28;20020;-83
2022/04/04 08:30:12;;;;;;;19.98;15.07;;;5.10;99.90;;;;;;5097301;28;20035;-82
2022/04/04 08:32:38;;;;;;;25.15;15.32;;;5.10;99.90;;;;;;5096505;28;20021;-83
2022/04/04 08:35:07;;;;;;;15.52;12.05;;;5.20;99.90;;;;;;5097217;28;20024;-83
2022/04/04 08:37:38;;;;;;;15.77;13.90;;;5.30;99.90;;;;;;5097815;28;20055;-83
2022/04/04 08:40:07;;;;;;;15.77;12.63;;;5.20;99.90;;;;;;5097129;28;20113;-83
2022/04/04 08:42:33;;;;;;;16.83;12.75;;;5.20;99.90;;;;;;5091897;28;20155;-83
2022/04/04 08:45:02;;;;;;;20.08;13.65;;;5.10;99.90;;;;;;5096373;28;20067;-83
2022/04/04 08:47:29;;;;;;;16.23;12.25;;;5.10;99.90;;;;;;5102022;28;20027;-84
2022/04/04 08:49:56;;;;;;;15.88;12.15;;;5.20;99.90;;;;;;5101205;28;20063;-83
2022/04/04 08:52:23;;;;;;;31.42;17.58;;;5.20;99.90;;;;;;5101507;28;20070;-82
2022/04/04 08:54:50;;;;;;;16.90;12.60;;;5.30;99.90;;;;;;5101863;28;20408;-83
2022/04/04 08:57:17;;;;;;;14.65;12.52;;;5.40;99.90;;;;;;5104595;28;20028;-85
2022/04/04 08:59:43;;;;;;;18.80;12.15;;;5.30;99.90;;;;;;5104241;28;20532;-81
2022/04/04 09:02:10;;;;;;;16.10;11.35;;;5.40;99.90;;;;;;5102013;28;20499;-82
2022/04/04 09:04:36;;;;;;;15.77;13.35;;;5.50;99.90;;;;;;5103409;28;20017;-82
2022/04/04 09:07:09;;;;;;;16.50;10.95;;;5.50;99.90;;;;;;5104222;28;20427;-83
2022/04/04 09:09:44;;;;;;;18.63;13.38;;;5.60;99.90;;;;;;5101789;28;20427;-84
2022/04/04 09:12:21;;;;;;;24.48;14.07;;;5.60;99.90;;;;;;5102045;28;20028;-84
2022/04/04 09:14:53;;;;;;;18.48;13.75;;;5.70;99.90;;;;;;5104133;28;20024;-84
2022/04/04 09:17:22;;;;;;;18.52;13.73;;;5.70;99.90;;;;;;5103102;28;20028;-83
2022/04/04 09:19:48;;;;;;;18.52;12.82;;;5.80;99.90;;;;;;5102032;28;20501;-84
2022/04/04 09:22:18;;;;;;;16.25;14.05;;;5.80;99.90;;;;;;5102543;28;20020;-83
2022/04/04 09:24:51;;;;;;;16.27;12.82;;;6.10;99.90;;;;;;5102500;28;20035;-83
2022/04/04 09:27:23;;;;;;;17.52;13.40;;;6.20;99.90;;;;;;5103594;28;20027;-83
2022/04/04 09:29:51;;;;;;;26.65;18.17;;;6.20;99.90;;;;;;5099799;28;20035;-83
2022/04/04 09:32:17;;;;;;;21.95;13.70;;;6.10;99.90;;;;;;5101259;28;20039;-82
2022/04/04 09:34:56;;;;;;;16.80;13.63;;;6.30;99.90;;;;;;5103314;28;20387;-83
2022/04/04 09:37:24;;;;;;;17.02;12.82;;;6.40;99.90;;;;;;5089577;28;20099;-82
2022/04/04 09:40:20;;;;;;;22.15;12.95;;;6.70;99.90;;;;;;5090257;28;20036;-82
2022/04/04 09:42:52;;;;;;;19.00;13.30;;;6.90;99.90;;;;;;5102830;28;20061;-81
2022/04/04 09:45:20;;;;;;;14.10;9.63;;;7.00;99.90;;;;;;5081815;28;20045;-83
2022/04/04 09:47:54;;;;;;;24.13;14.05;;;7.10;99.90;;;;;;5092638;28;20020;-82
2022/04/04 09:50:43;;;;;;;14.57;12.05;;;7.00;99.90;;;;;;5087285;28;20016;-84
2022/04/04 09:53:12;;;;;;;14.02;11.65;;;6.90;99.90;;;;;;5096717;28;20034;-83
2022/04/04 09:55:46;;;;;;;13.48;11.75;;;6.80;99.90;;;;;;5091838;28;20036;-84
2022/04/04 09:58:15;;;;;;;20.20;13.10;;;6.80;99.90;;;;;;5091630;28;20107;-83
2022/04/04 10:00:44;;;;;;;18.63;14.23;;;6.70;99.90;;;;;;5099054;28;20031;-83
2022/04/04 10:03:14;;;;;;;28.92;18.48;;;6.80;99.90;;;;;;5090825;28;20432;-82
2022/04/04 10:06:09;;;;;;;21.02;14.55;;;7.00;99.90;;;;;;5100029;28;20024;-83
2022/04/04 10:08:37;;;;;;;16.40;13.90;;;7.20;99.90;;;;;;5100606;28;20039;-84
2022/04/04 10:11:05;;;;;;;17.15;13.38;;;7.40;99.90;;;;;;5094198;28;20024;-84
2022/04/04 10:13:31;;;;;;;20.60;13.27;;;7.40;99.90;;;;;;5091700;28;20039;-84
2022/04/04 10:15:57;;;;;;;18.35;14.05;;;7.30;99.90;;;;;;5100583;28;20569;-82
2022/04/04 10:18:23;;;;;;;14.80;10.07;;;7.30;99.90;;;;;;5099712;28;20032;-84
2022/04/04 10:20:53;;;;;;;15.70;12.90;;;7.20;99.90;;;;;;5100434;28;20016;-85
2022/04/04 10:23:20;;;;;;;20.58;13.57;;;7.10;99.90;;;;;;5094533;28;20025;-84
2022/04/04 10:25:50;;;;;;;13.85;11.30;;;7.00;99.70;;;;;;5100883;28;20396;-84
2022/04/04 10:28:30;;;;;;;13.40;11.50;;;7.00;99.80;;;;;;5099524;28;20051;-82
2022/04/04 10:31:01;;;;;;;23.52;14.20;;;7.20;99.30;;;;;;5088269;28;20032;-83
2022/04/04 10:33:27;;;;;;;19.95;13.13;;;7.10;99.20;;;;;;5094345;28;20039;-82
2022/04/04 10:36:11;;;;;;;13.30;10.57;;;7.20;99.10;;;;;;5098185;28;20026;-83
2022/04/04 10:38:50;;;;;;;15.73;10.95;;;7.40;98.80;;;;;;5098889;28;20110;-83
2022/04/04 10:41:18;;;;;;;17.52;12.20;;;7.60;97.40;;;;;;5097882;28;20024;-82
2022/04/04 10:43:53;;;;;;;12.52;11.23;;;7.70;97.30;;;;;;5099240;28;20453;-82
2022/04/04 10:46:20;;;;;;;70.72;36.30;;;8.00;97.70;;;;;;5098769;28;20039;-82
2022/04/04 10:49:00;;;;;;;14.52;12.07;;;8.20;98.20;;;;;;5100084;28;20016;-82
2022/04/04 10:51:30;;;;;;;19.13;11.40;;;8.50;97.40;;;;;;5099054;28;20032;-83
2022/04/04 10:54:02;;;;;;;13.93;10.02;;;8.80;96.60;;;;;;5098961;28;20048;-84
2022/04/04 10:56:30;;;;;;;14.82;10.73;;;8.70;93.90;;;;;;5098364;28;20028;-83
2022/04/04 10:59:15;;;;;;;12.95;11.00;;;8.50;95.00;;;;;;5099430;28;20135;-83
2022/04/04 11:01:42;;;;;;;13.73;10.40;;;8.40;96.20;;;;;;5098896;28;20024;-84
2022/04/04 11:04:27;;;;;;;13.35;11.27;;;8.50;94.70;;;;;;5100100;28;20020;-85
2022/04/04 11:09:53;;;;;;;15.55;11.23;;;8.30;94.90;;;;;;5099884;28;20049;-83
2022/04/04 11:12:22;;;;;;;14.82;11.05;;;8.40;96.50;;;;;;5100149;28;20392;-82
2022/04/04 11:14:57;;;;;;;13.73;10.07;;;8.50;96.30;;;;;;5100602;28;20115;-85
2022/04/04 11:17:30;;;;;;;12.07;9.80;;;8.60;94.30;;;;;;5097908;28;20024;-84
2022/04/04 11:20:10;;;;;;;11.98;9.93;;;8.60;93.90;;;;;;5098172;28;20502;-86
2022/04/04 11:22:43;;;;;;;;;;;8.70;93.30;;;;;;5097983;28;20027;-84
2022/04/04 11:25:19;;;;;;;11.05;9.85;;;8.70;92.10;;;;;;5097593;28;19975;-84
2022/04/04 11:27:48;;;;;;;11.63;10.18;;;8.90;92.70;;;;;;5098142;28;20020;-83
2022/04/04 11:30:16;;;;;;;11.45;9.88;;;8.90;94.30;;;;;;5084324;28;20109;-83
2022/04/04 11:32:44;;;;;;;11.90;9.50;;;9.30;93.00;;;;;;5098077;28;20028;-82
2022/04/04 11:35:12;;;;;;;12.73;9.85;;;9.50;92.30;;;;;;5098062;28;21182;-81
2022/04/04 11:37:42;;;;;;;11.98;10.13;;;9.70;94.70;;;;;;5083165;28;20032;-82
2022/04/04 11:40:13;;;;;;;14.43;10.85;;;9.90;93.40;;;;;;5093414;28;20078;-80
2022/04/04 11:42:44;;;;;;;14.68;10.07;;;10.20;91.00;;;;;;5076123;28;20047;-85
2022/04/04 11:45:16;;;;;;;14.68;10.57;;;9.90;90.00;;;;;;5082563;28;20046;-84
2022/04/04 11:47:58;;;;;;;12.40;10.75;;;9.80;90.50;;;;;;5086141;28;20032;-83
2022/04/04 11:50:30;;;;;;;12.75;10.50;;;9.70;91.70;;;;;;5098864;28;20032;-83
2022/04/04 11:53:02;;;;;;;13.32;9.90;;;9.90;93.90;;;;;;5087175;28;20442;-85
2022/04/04 11:55:29;;;;;;;15.57;10.48;;;10.20;90.80;;;;;;5092552;28;20051;-85
2022/04/04 11:57:58;;;;;;;12.63;9.65;;;9.90;90.90;;;;;;5084948;28;20012;-82
2022/04/04 12:00:33;;;;;;;12.85;10.05;;;9.90;90.50;;;;;;5092332;28;20083;-83
2022/04/04 12:03:12;;;;;;;10.80;8.57;;;9.70;90.90;;;;;;5097899;28;20104;-84
2022/04/04 12:05:43;;;;;;;14.85;10.65;;;9.70;89.40;;;;;;5098677;28;20051;-83
2022/04/04 12:08:10;;;;;;;11.52;9.20;;;9.60;90.90;;;;;;5097671;28;20048;-83
2022/04/04 12:10:37;;;;;;;11.85;9.55;;;9.60;90.00;;;;;;5096327;28;20024;-81
2022/04/04 12:13:18;;;;;;;11.82;8.55;;;9.30;88.20;;;;;;5097551;28;20055;-79
2022/04/04 12:15:45;;;;;;;11.35;8.88;;;8.90;90.20;;;;;;5094845;28;20043;-80
2022/04/04 12:18:25;;;;;;;10.60;8.75;;;9.00;90.20;;;;;;5085680;28;20021;-82
2022/04/04 12:20:59;;;;;;;13.57;9.98;;;8.90;90.90;;;;;;5092512;28;20392;-80
2022/04/04 12:26:14;;;;;;;12.80;10.25;;;9.00;89.90;;;;;;5101021;28;20123;-81
2022/04/04 12:28:51;;;;;;;11.35;9.25;;;9.30;93.60;;;;;;5099400;28;20038;-81
2022/04/04 12:31:26;;;;;;;11.13;9.90;;;9.60;91.20;;;;;;5090867;28;20020;-81
2022/04/04 12:34:00;;;;;;;11.20;8.88;;;10.00;91.60;;;;;;5090377;28;20073;-81
2022/04/04 12:36:37;;;;;;;13.38;8.88;;;10.40;89.60;;;;;;5097341;28;20059;-80
2022/04/04 12:39:05;;;;;;;12.85;9.27;;;10.70;88.90;;;;;;5099683;28;20091;-80
2022/04/04 12:41:42;;;;;;;11.80;8.05;;;11.00;89.40;;;;;;5095545;28;20032;-82
2022/04/04 12:44:07;;;;;;;14.70;9.93;;;11.50;89.00;;;;;;5100382;28;20066;-81
2022/04/04 12:46:35;;;;;;;11.85;9.50;;;11.10;89.60;;;;;;5100709;28;20400;-83
2022/04/04 12:49:23;;;;;;;13.10;8.88;;;11.00;85.80;;;;;;5101233;28;20090;-85